Airfield :
LOGIN :

Register | Disclaimer

   EN    FR    IT 

 










Legend :    VFR   Marginal VFR   IFR   Intensive IFR   Very Intensive IFR
Visi :
Ceiling :
>= 8 km
>= 3000ft
5 to 8 km
1000 to 3000 ft
1500m to 5 km
500 to 1000 ft
800 to 1500m
200 to 500 ft
< 800m
< 200 ft
Symbols :   Thunderstorms  Fog  Heavy snow  Heavy precipitations  Wind > 20 kt
SIGMETs :     Misc.  Thunderstorms  Icing  Turbulence  Mountain Waves  Volcanic Ashes






- Airport Elevation : 408 ft
- IATA code : FKB


EDSB - Karlsruhe Baden Baden

CURRENT METAR :
  • 041420Z VRB02KT 9000 -RA OVC033 06/05 Q0989

EXPIRED METARs :
  • 041350Z VRB02KT 9000 -RA OVC035 06/05 Q0989
  • 041320Z 16004KT 9000 -RA OVC039 06/04 Q0989
  • 041250Z 19007KT 9999 -RA BKN038 OVC044 06/04 Q0989
  • 041220Z 18008KT 9999 -RA SCT034 BKN040 OVC045 06/04 Q0989
  • 041150Z 21007KT 9999 -RA BKN035 OVC043 06/04 Q0989

TAF TAF EDSB
Valid from the 04 at 12:00 until the 05 at 12:00 UTC


041100Z 0412/0512 VRB03KT 9999 BKN035
TEMPO 0422/0504 4000 RA BKN014
PROB30
TEMPO 0422/0504 2500 RASN BKN008
PROB30
TEMPO 0504/0509 3000 BR BKN014



MET'MAP, your aeronautical weather chart ! - Copyright ORBIFLY December 2007 - Disclaimer

ORBIFLY MET'MAP TEAM :

Programming & Development : Alexandra Zaïnal
Concept & original design : Baudouin d'Aumeries
Assistance for programming : Marc-Olivier Méhu
Technical & hardware support : Manuel Goepfert

Contact : metmap@orbifly.com




SOURCES & CREDITS :

   NOAA